Time;durP1;ratioP1;P1;durP2;ratioP2;P2;SDS_P1;SDS_P2;PMS_P1;PMS_P2;Temp;Humidity;BMP_temperature;BMP_pressure;BME280_temperature;BME280_humidity;BME280_pressure;Samples;Min_cycle;Max_cycle;Signal;HPM_P1;HPM_P2
2022/03/16 00:00:13;;;;;;;;;21.67;20.67;;;;;12.45;72.49;101280.34;5074610;27;45605;-64
2022/03/16 00:02:39;;;;;;;;;18.33;18.33;;;;;12.45;72.64;101272.44;5075286;27;46126;-64
2022/03/16 00:05:04;;;;;;;;;18.67;18.33;;;;;12.44;72.48;101265.41;5075674;28;45336;-64
2022/03/16 00:07:30;;;;;;;;;20.33;20.33;;;;;12.44;71.76;101268.06;5075443;28;45796;-64
2022/03/16 00:09:55;;;;;;;;;24.33;21.33;;;;;12.45;72.06;101275.94;5076023;27;45576;-64
2022/03/16 00:12:21;;;;;;;;;27.67;22.67;;;;;12.45;72.40;101269.78;5076163;28;46285;-63
2022/03/16 00:14:46;;;;;;;;;21.00;20.00;;;;;12.44;72.08;101268.94;5076019;27;45515;-64
2022/03/16 00:17:12;;;;;;;;;20.67;20.00;;;;;12.45;72.05;101272.44;5075548;27;45408;-63
2022/03/16 00:19:39;;;;;;;;;21.00;21.00;;;;;12.46;71.52;101269.72;5075778;28;45610;-64
2022/03/16 00:22:04;;;;;;;;;23.00;20.67;;;;;12.44;72.33;101268.94;5075688;28;46156;-64
2022/03/16 00:24:30;;;;;;;;;21.67;20.67;;;;;12.46;72.32;101269.72;5075370;28;45470;-64
2022/03/16 00:26:56;;;;;;;;;24.33;23.33;;;;;12.46;72.33;101267.09;5075383;27;45386;-64
2022/03/16 00:29:21;;;;;;;;;20.33;20.33;;;;;12.48;71.66;101269.69;5070913;27;45387;-64
2022/03/16 00:31:47;;;;;;;;;24.67;21.00;;;;;12.46;71.45;101263.59;5075413;28;45385;-62
2022/03/16 00:34:12;;;;;;;;;23.33;21.67;;;;;12.45;71.23;101257.47;5062908;27;45435;-63
2022/03/16 00:36:38;;;;;;;;;25.67;22.67;;;;;12.45;71.85;101267.16;5074199;27;45439;-63
2022/03/16 00:39:04;;;;;;;;;19.33;19.33;;;;;12.43;71.50;101264.56;5057302;28;45438;-63
2022/03/16 00:41:30;;;;;;;;;23.00;23.00;;;;;12.41;71.80;101255.81;5078935;28;46547;-63
2022/03/16 00:43:56;;;;;;;;;24.67;20.67;;;;;12.43;71.86;101267.19;5079266;28;45551;-62
2022/03/16 00:46:21;;;;;;;;;24.67;23.33;;;;;12.44;72.37;101257.50;5078280;28;45599;-63
2022/03/16 00:48:47;;;;;;;;;23.67;23.33;;;;;12.44;72.15;101260.13;5078987;28;45571;-63
2022/03/16 00:51:12;;;;;;;;;21.00;20.67;;;;;12.46;72.15;101258.31;5077494;27;48006;-63
2022/03/16 00:53:39;;;;;;;;;21.00;20.67;;;;;12.48;72.38;101256.50;5078907;28;45462;-62
2022/03/16 00:56:06;;;;;;;;;27.67;26.33;;;;;12.48;71.92;101252.06;5079169;28;45458;-63
2022/03/16 00:58:31;;;;;;;;;23.00;23.00;;;;;12.51;72.06;101248.47;5078411;27;45656;-63
2022/03/16 01:00:58;;;;;;;;;22.00;21.33;;;;;12.52;72.06;101243.16;5078551;27;46139;-63
2022/03/16 01:03:23;;;;;;;;;19.00;18.00;;;;;12.54;71.83;101241.31;5078004;27;45533;-63
2022/03/16 01:05:49;;;;;;;;;20.67;20.33;;;;;12.56;71.43;101239.50;5077784;28;45370;-62
2022/03/16 01:08:14;;;;;;;;;21.00;21.00;;;;;12.56;71.17;101234.22;5077207;28;45536;-62
2022/03/16 01:10:40;;;;;;;;;22.67;22.67;;;;;12.55;70.76;101232.50;5077498;27;45498;-62
2022/03/16 01:13:06;;;;;;;;;21.33;20.33;;;;;12.54;71.65;101229.91;5078068;27;45580;-62
2022/03/16 01:15:32;;;;;;;;;21.00;20.00;;;;;12.53;72.01;101233.47;5077782;27;45533;-63
2022/03/16 01:17:57;;;;;;;;;19.67;19.67;;;;;12.53;71.60;101229.03;5077883;28;45453;-65
2022/03/16 01:20:23;;;;;;;;;19.33;17.00;;;;;12.53;71.56;101217.63;5077884;28;46189;-63
2022/03/16 01:22:48;;;;;;;;;20.67;20.00;;;;;12.53;71.66;101218.50;5078608;27;45521;-63
2022/03/16 01:25:14;;;;;;;;;21.33;21.00;;;;;12.52;71.23;101213.25;5078012;27;45453;-63
2022/03/16 01:27:40;;;;;;;;;20.33;20.33;;;;;12.50;70.71;101215.97;5078608;28;45421;-63
2022/03/16 01:30:06;;;;;;;;;18.00;18.00;;;;;12.49;71.10;101208.97;5078488;28;45545;-63
2022/03/16 01:32:32;;;;;;;;;23.00;22.00;;;;;12.46;70.63;101201.13;5078274;27;45389;-63
2022/03/16 01:34:57;;;;;;;;;22.33;21.00;;;;;12.44;71.21;101204.72;5077289;28;45407;-64
2022/03/16 01:37:22;;;;;;;;;20.67;19.67;;;;;12.41;70.92;101203.06;5077967;28;45474;-63
2022/03/16 01:39:48;;;;;;;;;23.33;21.33;;;;;12.38;70.88;101198.78;5078181;27;45427;-63
2022/03/16 01:42:14;;;;;;;;;19.00;17.33;;;;;12.37;71.69;101201.44;5077758;28;45470;-63
2022/03/16 01:44:42;;;;;;;;;21.33;20.33;;;;;12.32;70.77;101195.47;5076357;27;45540;-63
2022/03/16 01:47:07;;;;;;;;;21.33;20.00;;;;;12.32;70.97;101203.38;5077952;27;45586;-63
2022/03/16 01:49:32;;;;;;;;;22.33;20.67;;;;;12.30;70.74;101205.19;5077222;28;46306;-63
2022/03/16 01:51:58;;;;;;;;;18.67;18.67;;;;;12.29;70.79;101206.97;5077463;28;45501;-63
2022/03/16 01:54:23;;;;;;;;;20.00;18.67;;;;;12.28;71.54;101202.63;5078308;27;45416;-63
2022/03/16 01:56:49;;;;;;;;;19.33;19.33;;;;;12.31;71.26;101209.56;5076965;27;45425;-63
2022/03/16 01:59:14;;;;;;;;;24.00;23.67;;;;;12.32;71.07;101204.22;5077648;27;46180;-62
2022/03/16 02:01:40;;;;;;;;;21.33;21.33;;;;;12.33;70.59;101205.09;5076180;27;45422;-63
2022/03/16 02:04:05;;;;;;;;;24.33;19.67;;;;;12.34;71.02;101201.56;5077917;28;45515;-63
2022/03/16 02:06:30;;;;;;;;;20.00;19.00;;;;;12.35;71.36;101208.53;5078151;28;45590;-63
2022/03/16 02:08:55;;;;;;;;;24.33;20.33;;;;;12.34;70.70;101204.19;5077280;28;46290;-63
2022/03/16 02:11:21;;;;;;;;;20.67;19.33;;;;;12.31;70.76;101205.16;5077921;28;45400;-63
2022/03/16 02:13:47;;;;;;;;;18.67;17.33;;;;;12.28;71.06;101213.19;5077540;28;45434;-63
2022/03/16 02:16:13;;;;;;;;;21.33;20.33;;;;;12.27;70.93;101208.78;5078102;27;45517;-63
2022/03/16 02:18:38;;;;;;;;;18.33;17.00;;;;;12.26;70.78;101198.31;5077360;28;46445;-63
2022/03/16 02:21:06;;;;;;;;;20.33;17.67;;;;;12.25;70.11;101201.84;5076828;28;45949;-63
2022/03/16 02:23:31;;;;;;;;;19.67;19.67;;;;;12.23;71.17;101207.19;5077919;28;45375;-63
2022/03/16 02:25:57;;;;;;;;;20.33;18.33;;;;;12.21;71.25;101203.72;5078052;28;45364;-63
2022/03/16 02:28:24;;;;;;;;;18.33;18.33;;;;;12.21;70.92;101205.50;5077475;27;45579;-63
2022/03/16 02:30:50;;;;;;;;;18.00;16.67;;;;;12.21;70.74;101197.59;5077867;27;45353;-63
2022/03/16 02:33:15;;;;;;;;;20.00;18.33;;;;;12.23;71.39;101195.78;5077142;27;45323;-63
2022/03/16 02:35:41;;;;;;;;;20.33;19.00;;;;;12.23;71.12;101187.88;5077461;28;45536;-63
2022/03/16 02:38:06;;;;;;;;;17.00;17.00;;;;;12.24;70.48;101189.59;5077438;28;45414;-63
2022/03/16 02:40:32;;;;;;;;;23.00;20.00;;;;;12.26;70.51;101185.13;5077695;28;45394;-63
2022/03/16 02:42:58;;;;;;;;;18.33;18.33;;;;;12.25;70.78;101183.38;5076382;27;45469;-63
2022/03/16 02:45:24;;;;;;;;;18.00;17.00;;;;;12.23;70.17;101172.03;5076748;28;45538;-63
2022/03/16 02:47:49;;;;;;;;;18.33;18.00;;;;;12.26;71.01;101182.50;5076295;28;46160;-63
2022/03/16 02:50:16;;;;;;;;;20.67;16.67;;;;;12.26;70.78;101183.34;5076840;28;45520;-64
2022/03/16 02:52:43;;;;;;;;;20.00;18.00;;;;;12.28;71.47;101181.53;5075908;28;45544;-63
2022/03/16 02:55:09;;;;;;;;;19.67;19.00;;;;;12.29;70.60;101183.25;5076849;27;45577;-63
2022/03/16 02:57:35;;;;;;;;;22.33;20.33;;;;;12.31;70.94;101180.56;5076373;28;45520;-64
2022/03/16 03:00:02;;;;;;;;;19.33;18.00;;;;;12.32;70.71;101184.91;5076957;27;45398;-63
2022/03/16 03:02:27;;;;;;;;;20.67;19.67;;;;;12.33;71.07;101179.59;5076172;28;45596;-62
2022/03/16 03:04:53;;;;;;;;;17.67;17.33;;;;;12.34;71.20;101170.75;5076579;27;45508;-63
2022/03/16 03:07:18;;;;;;;;;27.00;26.33;;;;;12.34;70.05;101176.03;5077032;28;45506;-64
2022/03/16 03:09:44;;;;;;;;;30.67;28.67;;;;;12.34;70.97;101178.69;5076615;28;45401;-63
2022/03/16 03:12:10;;;;;;;;;41.25;34.25;;;;;12.34;70.41;101172.53;5076918;28;45354;-63
2022/03/16 03:14:35;;;;;;;;;40.50;36.50;;;;;12.32;70.78;101177.84;5077076;28;45488;-63
2022/03/16 03:17:01;;;;;;;;;40.50;37.00;;;;;12.34;70.77;101177.81;5076763;28;46265;-64
2022/03/16 03:19:27;;;;;;;;;37.75;33.50;;;;;12.33;70.34;101184.00;5077237;27;45439;-63
2022/03/16 03:21:52;;;;;;;;;39.25;35.50;;;;;12.33;70.35;101181.34;5076483;27;45651;-64
2022/03/16 03:24:18;;;;;;;;;38.00;35.25;;;;;12.34;70.18;101180.47;5076291;27;45410;-63
2022/03/16 03:26:43;;;;;;;;;36.75;32.25;;;;;12.34;70.23;101175.19;5076431;28;46386;-63
2022/03/16 03:29:09;;;;;;;;;35.75;31.00;;;;;12.34;70.85;101169.91;5076496;28;45405;-63
2022/03/16 03:31:34;;;;;;;;;30.00;30.00;;;;;12.34;70.15;101172.53;5076765;28;45364;-63
2022/03/16 03:34:00;;;;;;;;;37.00;33.75;;;;;12.34;70.48;101172.53;5077054;28;45448;-64
2022/03/16 03:36:26;;;;;;;;;36.25;33.00;;;;;12.33;70.87;101176.97;5076510;28;46158;-63
2022/03/16 03:38:51;;;;;;;;;38.75;35.00;;;;;12.32;69.85;101171.72;5075899;27;45410;-64
2022/03/16 03:41:16;;;;;;;;;39.00;35.25;;;;;12.29;70.57;101183.25;5076432;27;45487;-64
2022/03/16 03:43:42;;;;;;;;;33.50;31.00;;;;;12.29;70.28;101185.03;5076360;27;45606;-63
2022/03/16 03:46:07;;;;;;;;;41.50;36.25;;;;;12.29;70.74;101185.03;5076464;27;45631;-64
2022/03/16 03:48:32;;;;;;;;;36.75;33.75;;;;;12.29;70.55;101182.38;5075952;28;45462;-63
2022/03/16 03:50:58;;;;;;;;;34.25;32.00;;;;;12.30;71.00;101178.81;5076593;27;45398;-64
2022/03/16 03:53:24;;;;;;;;;31.75;31.25;;;;;12.27;70.55;101181.56;5075509;27;45450;-64
2022/03/16 03:55:49;;;;;;;;;36.00;32.75;;;;;12.27;71.06;101182.41;5076196;27;46275;-64
2022/03/16 03:58:14;;;;;;;;;34.50;33.75;;;;;12.28;71.03;101180.66;5075489;28;45507;-64
2022/03/16 04:00:40;;;;;;;;;33.33;31.00;;;;;12.27;71.34;101181.56;5074828;28;45421;-64
2022/03/16 04:03:05;;;;;;;;;26.50;25.25;;;;;12.29;70.63;101183.25;5076264;27;45543;-63
2022/03/16 04:05:31;;;;;;;;;29.25;27.50;;;;;12.29;70.63;101179.75;5076093;27;45542;-64
2022/03/16 04:07:56;;;;;;;;;35.33;33.00;;;;;12.28;70.77;101170.97;5076199;27;45551;-63
2022/03/16 04:10:21;;;;;;;;;26.33;24.67;;;;;12.28;70.16;101168.34;5076293;28;45424;-63
2022/03/16 04:12:46;;;;;;;;;30.50;27.50;;;;;12.29;70.67;101162.13;5076500;27;45556;-64
2022/03/16 04:15:12;;;;;;;;;36.50;31.75;;;;;12.29;70.18;101164.78;5075224;27;46454;-64
2022/03/16 04:17:38;;;;;;;;;34.25;28.75;;;;;12.29;70.23;101161.28;5076301;28;45453;-64
2022/03/16 04:20:05;;;;;;;;;27.67;26.00;;;;;12.28;70.97;101154.28;5076342;27;45417;-63
2022/03/16 04:22:30;;;;;;;;;31.67;28.00;;;;;12.25;70.24;101152.63;5075625;27;45331;-63
2022/03/16 04:24:56;;;;;;;;;22.67;22.67;;;;;12.24;70.40;101145.59;5081751;27;46443;-63
2022/03/16 04:27:22;;;;;;;;;26.33;25.33;;;;;12.22;70.53;101149.19;5088522;27;45362;-63
2022/03/16 04:29:48;;;;;;;;;22.67;22.67;;;;;12.21;70.61;101148.34;5076191;28;45447;-63
2022/03/16 04:32:13;;;;;;;;;27.00;26.33;;;;;12.19;70.42;101149.31;5075654;28;45422;-63
2022/03/16 04:34:39;;;;;;;;;25.67;25.33;;;;;12.19;70.24;101154.59;5075541;27;46084;-62
2022/03/16 04:37:05;;;;;;;;;26.33;24.33;;;;;12.15;69.99;101152.06;5075641;28;45377;-63
2022/03/16 04:39:31;;;;;;;;;31.00;27.00;;;;;12.13;70.70;101137.19;5075935;28;45387;-64
2022/03/16 04:41:56;;;;;;;;;28.67;26.00;;;;;12.11;69.97;101141.66;5075819;27;45477;-63
2022/03/16 04:44:21;;;;;;;;;26.00;26.00;;;;;12.07;70.04;101133.00;5075566;27;45433;-64
2022/03/16 04:46:47;;;;;;;;;24.33;23.67;;;;;12.06;70.87;101138.28;5075714;28;45449;-64
2022/03/16 04:49:12;;;;;;;;;36.00;31.25;;;;;12.04;69.98;101138.38;5075709;28;45694;-64
2022/03/16 04:51:37;;;;;;;;;24.33;24.33;;;;;12.02;70.94;101139.31;5075249;27;45564;-64
2022/03/16 04:54:03;;;;;;;;;33.00;31.50;;;;;12.01;70.88;101137.59;5075720;27;45535;-64
2022/03/16 04:56:29;;;;;;;;;32.75;31.00;;;;;12.00;71.40;101143.78;5075769;27;45744;-65
2022/03/16 04:58:54;;;;;;;;;32.75;32.25;;;;;11.98;70.77;101146.44;5076227;28;45419;-64
2022/03/16 05:01:20;;;;;;;;;34.25;33.25;;;;;11.99;71.59;101150.84;5075874;28;45355;-64
2022/03/16 05:03:46;;;;;;;;;34.25;33.75;;;;;12.00;70.89;101149.06;5075570;27;46236;-64
2022/03/16 05:06:11;;;;;;;;;34.50;31.75;;;;;11.99;70.89;101147.34;5075024;27;45395;-62
2022/03/16 05:08:37;;;;;;;;;32.50;31.25;;;;;11.96;71.32;101140.38;5075649;28;45352;-64
2022/03/16 05:11:04;;;;;;;;;31.00;29.67;;;;;11.94;70.63;101129.88;5075842;28;45622;-64
2022/03/16 05:13:30;;;;;;;;;33.75;32.50;;;;;11.92;70.11;101130.84;5074630;27;46101;-64
2022/03/16 05:15:55;;;;;;;;;33.00;31.25;;;;;11.88;71.31;101129.25;5075448;27;45398;-65
2022/03/16 05:18:23;;;;;;;;;33.00;28.00;;;;;11.86;70.43;101133.69;5075307;27;45607;-64
2022/03/16 05:20:48;;;;;;;;;28.75;27.50;;;;;11.84;70.93;101130.19;5075417;27;45453;-65
2022/03/16 05:23:14;;;;;;;;;25.00;25.00;;;;;11.80;70.79;101133.84;5074603;27;46002;-64
2022/03/16 05:25:39;;;;;;;;;26.25;26.25;;;;;11.76;71.33;101140.13;5076786;28;45426;-64
2022/03/16 05:28:04;;;;;;;;;34.25;31.50;;;;;11.75;71.60;101146.31;5078805;28;45464;-64
2022/03/16 05:30:30;;;;;;;;;30.33;28.00;;;;;11.75;71.99;101144.53;5078490;27;45553;-64
2022/03/16 05:33:00;;;;;;;;;25.50;24.00;;;;;11.76;70.72;101153.28;5077455;28;45933;-64
2022/03/16 05:35:26;;;;;;;;;25.75;24.00;;;;;11.73;71.07;101152.47;5078606;27;45463;-63
2022/03/16 05:37:51;;;;;;;;;26.75;26.75;;;;;11.75;70.79;101155.06;5078579;28;45405;-63
2022/03/16 05:40:17;;;;;;;;;35.50;28.50;;;;;11.77;71.73;101155.91;5078969;27;45643;-63
2022/03/16 05:42:42;;;;;;;;;29.25;26.00;;;;;11.76;71.55;101159.44;5078092;27;45453;-62
2022/03/16 05:45:08;;;;;;;;;29.50;28.25;;;;;11.77;71.40;101160.28;5078042;28;45370;-63
2022/03/16 05:47:34;;;;;;;;;32.00;30.50;;;;;11.76;71.07;101156.78;5078640;27;45378;-65
2022/03/16 05:49:59;;;;;;;;;31.75;28.50;;;;;11.75;71.57;101159.50;5078328;27;45543;-64
2022/03/16 05:52:25;;;;;;;;;26.75;26.75;;;;;11.75;71.34;101154.22;5078426;27;45408;-64
2022/03/16 05:54:53;;;;;;;;;30.25;30.25;;;;;11.74;71.32;101158.63;5078601;27;45409;-63
2022/03/16 05:57:18;;;;;;;;;31.50;28.00;;;;;11.73;71.43;101157.75;5078573;27;45370;-63
2022/03/16 05:59:45;;;;;;;;;30.75;30.75;;;;;11.76;71.44;101161.19;5078581;27;45451;-64
2022/03/16 06:02:11;;;;;;;;;26.25;26.25;;;;;11.76;70.68;101155.94;5078060;27;45469;-64
2022/03/16 06:04:37;;;;;;;;;26.00;25.50;;;;;11.76;72.00;101161.19;5077419;28;45608;-64
2022/03/16 06:07:06;;;;;;;;;30.00;30.00;;;;;11.76;71.58;101158.56;5078207;27;45439;-63
2022/03/16 06:09:32;;;;;;;;;30.75;30.75;;;;;11.77;70.95;101162.91;5078267;28;45388;-64
2022/03/16 06:11:58;;;;;;;;;27.75;24.00;;;;;11.76;71.37;101169.97;5077366;28;45418;-64
2022/03/16 06:14:24;;;;;;;;;29.75;27.25;;;;;11.75;71.49;101172.66;5077873;27;45465;-65
2022/03/16 06:16:50;;;;;;;;;34.50;31.00;;;;;11.75;71.86;101164.75;5077874;27;45790;-65
2022/03/16 06:19:15;;;;;;;;;34.25;31.25;;;;;11.71;70.75;101164.84;5076833;27;45581;-64
2022/03/16 06:21:41;;;;;;;;;32.25;28.50;;;;;11.71;71.15;101159.59;5076993;28;46128;-65
2022/03/16 06:24:06;;;;;;;;;33.25;33.00;;;;;11.68;70.88;101164.94;5077595;27;45419;-65
2022/03/16 06:26:32;;;;;;;;;30.75;28.25;;;;;11.67;70.75;101159.72;5077729;27;45551;-63
2022/03/16 06:28:57;;;;;;;;;31.50;29.50;;;;;11.65;70.87;101167.66;5077148;27;45377;-59
2022/03/16 06:31:23;;;;;;;;;33.75;30.75;;;;;11.64;71.42;101167.72;5080554;27;46087;-67
2022/03/16 06:33:48;;;;;;;;;32.50;31.00;;;;;11.65;71.24;101172.06;5075716;27;45448;-70
2022/03/16 06:36:14;;;;;;;;;34.00;30.50;;;;;11.68;71.39;101179.88;5076086;27;45428;-63
2022/03/16 06:38:39;;;;;;;;;30.50;29.75;;;;;11.68;71.11;101172.84;5076620;28;45599;-62
2022/03/16 06:41:05;;;;;;;;;33.75;31.25;;;;;11.70;70.94;101172.78;5077158;28;46193;-63
2022/03/16 06:43:31;;;;;;;;;27.75;25.50;;;;;11.71;71.12;101178.03;5077262;28;45503;-61
2022/03/16 06:45:57;;;;;;;;;33.50;31.25;;;;;11.71;70.98;101185.94;5077301;28;45461;-63
2022/03/16 06:48:23;;;;;;;;;32.00;30.00;;;;;11.70;71.83;101184.19;5076658;27;45497;-63
2022/03/16 06:50:49;;;;;;;;;32.50;29.75;;;;;11.71;71.71;101196.47;5055186;28;46891;-64
2022/03/16 06:53:15;;;;;;;;;35.75;33.50;;;;;11.74;71.25;101198.16;5071729;28;45477;-63
2022/03/16 06:55:40;;;;;;;;;34.25;34.00;;;;;11.75;71.18;101199.03;5074929;27;45434;-62
2022/03/16 06:58:05;;;;;;;;;25.50;25.25;;;;;11.76;71.23;101204.22;5076651;28;45441;-67
2022/03/16 07:00:31;;;;;;;;;39.25;34.00;;;;;11.78;71.28;101206.81;5075612;27;46123;-65
2022/03/16 07:03:06;;;;;;;;;38.75;33.75;;;;;11.78;70.77;101206.81;5075899;28;45391;-65
2022/03/16 07:05:37;;;;;;;;;29.50;29.00;;;;;11.77;71.39;101197.16;5076572;28;45584;-66
2022/03/16 07:08:06;;;;;;;;;28.75;28.75;;;;;11.76;70.90;101198.09;5076114;27;45430;-66
2022/03/16 07:10:32;;;;;;;;;37.75;34.00;;;;;11.76;70.55;101195.47;5076599;28;45605;-66
2022/03/16 07:12:58;;;;;;;;;30.50;29.25;;;;;11.76;70.58;101191.03;5076447;27;45453;-66
2022/03/16 07:15:25;;;;;;;;;35.25;33.25;;;;;11.75;70.79;101201.66;5076983;28;45363;-66
2022/03/16 07:17:50;;;;;;;;;31.00;30.00;;;;;11.75;71.48;101196.38;5076851;27;45532;-66
2022/03/16 07:20:16;;;;;;;;;33.75;28.50;;;;;11.74;71.23;101195.53;5076598;28;46050;-66
2022/03/16 07:22:41;;;;;;;;;30.00;30.00;;;;;11.75;71.70;101196.38;5076622;27;45413;-66
2022/03/16 07:25:10;;;;;;;;;35.00;32.50;;;;;11.73;71.62;101192.00;5076505;28;45442;-66
2022/03/16 07:27:40;;;;;;;;;32.50;29.00;;;;;11.75;70.86;101197.25;5075295;27;45575;-66
2022/03/16 07:30:08;;;;;;;;;34.00;31.00;;;;;11.77;70.77;101202.44;5076537;27;45502;-66
2022/03/16 07:32:40;;;;;;;;;36.75;33.50;;;;;11.78;70.80;101205.03;5076585;27;45433;-66
2022/03/16 07:35:07;;;;;;;;;35.00;34.25;;;;;11.79;70.75;101201.50;5076323;27;45638;-66
2022/03/16 07:37:34;;;;;;;;;33.25;31.75;;;;;11.79;71.12;101195.38;5076057;28;45534;-66
2022/03/16 07:39:59;;;;;;;;;28.00;25.50;;;;;11.77;70.84;101208.59;5075138;27;45381;-66
2022/03/16 07:42:25;;;;;;;;;29.50;28.50;;;;;11.78;70.73;101207.69;5076014;28;45508;-66
2022/03/16 07:44:51;;;;;;;;;36.25;33.75;;;;;11.77;71.15;101200.69;5076367;28;45416;-66
2022/03/16 07:47:17;;;;;;;;;32.75;32.75;;;;;11.80;71.35;101205.00;5076611;28;45407;-67
2022/03/16 07:49:42;;;;;;;;;32.00;30.00;;;;;11.78;70.85;101197.13;5075908;27;45546;-67
2022/03/16 07:52:08;;;;;;;;;34.00;31.00;;;;;11.78;70.60;101206.81;5076314;28;45433;-67
2022/03/16 07:54:33;;;;;;;;;41.25;35.25;;;;;11.76;70.46;101204.22;5076231;27;45499;-67
2022/03/16 07:56:59;;;;;;;;;35.75;34.00;;;;;11.74;70.12;101192.88;5076144;27;45640;-67
2022/03/16 07:59:24;;;;;;;;;30.75;30.00;;;;;11.73;71.08;101199.91;5076179;27;46127;-65
2022/03/16 08:01:49;;;;;;;;;38.50;31.50;;;;;11.69;70.38;101192.16;5076127;27;45400;-65
2022/03/16 08:04:15;;;;;;;;;33.25;32.25;;;;;11.71;70.82;101198.22;5075237;28;45425;-65
2022/03/16 08:06:41;;;;;;;;;32.50;31.25;;;;;11.68;70.87;101201.81;5076396;27;45425;-66
2022/03/16 08:09:06;;;;;;;;;28.50;28.50;;;;;11.67;71.64;101202.72;5075934;27;45448;-66
2022/03/16 08:11:32;;;;;;;;;33.50;30.00;;;;;11.67;70.45;101196.59;5076069;27;45417;-65
2022/03/16 08:13:57;;;;;;;;;32.75;29.00;;;;;11.68;70.44;101187.78;5076179;27;45368;-66
2022/03/16 08:16:23;;;;;;;;;35.25;33.50;;;;;11.68;70.91;101185.16;5076285;27;45599;-66
2022/03/16 08:18:49;;;;;;;;;32.25;31.75;;;;;11.65;71.25;101188.75;5075969;28;45400;-65
2022/03/16 08:21:14;;;;;;;;;37.25;35.25;;;;;11.64;71.50;101173.84;5075908;27;45378;-65
2022/03/16 08:23:39;;;;;;;;;37.00;30.25;;;;;11.62;70.80;101180.94;5075678;27;45363;-65
2022/03/16 08:26:05;;;;;;;;;41.00;35.00;;;;;11.62;71.45;101186.19;5075728;27;45486;-65
2022/03/16 08:28:30;;;;;;;;;37.00;34.75;;;;;11.61;70.76;101181.84;5074266;27;46500;-66
2022/03/16 08:30:55;;;;;;;;;36.75;34.25;;;;;11.62;70.62;101170.41;5075600;28;45332;-66
2022/03/16 08:33:23;;;;;;;;;37.25;33.75;;;;;11.63;71.44;101177.41;5075958;27;45438;-65
2022/03/16 08:35:49;;;;;;;;;33.50;31.50;;;;;11.63;70.45;101182.69;5075990;27;45398;-65
2022/03/16 08:38:14;;;;;;;;;37.25;34.25;;;;;11.65;70.65;101179.97;5075577;27;45536;-66
2022/03/16 08:40:41;;;;;;;;;33.75;32.00;;;;;11.67;70.85;101186.94;5075548;28;45539;-66
2022/03/16 08:43:07;;;;;;;;;36.00;34.50;;;;;11.70;70.89;101189.47;5075515;27;45592;-67
2022/03/16 08:45:32;;;;;;;;;36.00;33.50;;;;;11.75;70.55;101193.75;5075551;27;45391;-66
2022/03/16 08:47:58;;;;;;;;;34.50;32.75;;;;;11.79;70.80;101196.22;5075646;27;45374;-66
2022/03/16 08:50:24;;;;;;;;;36.50;34.25;;;;;11.82;70.34;101198.78;5075357;27;45397;-69
2022/03/16 08:52:49;;;;;;;;;40.50;36.75;;;;;11.85;70.50;101206.59;5075484;28;45484;-70
2022/03/16 08:55:15;;;;;;;;;39.00;30.25;;;;;11.88;70.49;101205.66;5075328;27;45386;-68
2022/03/16 08:57:43;;;;;;;;;34.00;33.25;;;;;11.90;71.06;101214.38;5074979;28;46439;-66
2022/03/16 09:00:14;;;;;;;;;41.00;37.00;;;;;11.94;70.22;101214.22;5076038;27;45498;-66
2022/03/16 09:02:40;;;;;;;;;37.00;35.00;;;;;11.98;69.81;101214.13;5079245;27;45352;-66
2022/03/16 09:05:06;;;;;;;;;36.50;35.50;;;;;11.99;69.78;101227.28;5078800;27;45670;-66
2022/03/16 09:07:31;;;;;;;;;39.50;36.00;;;;;12.02;70.18;101219.28;5078697;27;46066;-66
2022/03/16 09:09:56;;;;;;;;;35.50;34.25;;;;;12.05;70.27;101220.94;5078846;27;45453;-65
2022/03/16 09:12:24;;;;;;;;;33.75;33.00;;;;;12.08;69.83;101215.56;5078648;27;45581;-66
2022/03/16 09:14:49;;;;;;;;;40.50;37.00;;;;;12.13;70.15;101213.66;5079066;27;45460;-65
2022/03/16 09:17:17;;;;;;;;;42.00;36.75;;;;;12.15;69.72;101223.25;5078601;27;46032;-65
2022/03/16 09:19:43;;;;;;;;;43.50;39.00;;;;;12.18;70.10;101214.38;5078749;27;45332;-66
2022/03/16 09:22:08;;;;;;;;;41.50;37.25;;;;;12.20;70.26;101217.84;5078567;27;45384;-66
2022/03/16 09:24:34;;;;;;;;;48.50;39.75;;;;;12.23;69.58;101212.47;5078689;27;45316;-66
2022/03/16 09:26:59;;;;;;;;;44.00;37.50;;;;;12.24;69.41;101211.53;5078446;27;45422;-66
2022/03/16 09:29:26;;;;;;;;;39.25;36.50;;;;;12.27;69.39;101215.84;5078479;27;45392;-66
2022/03/16 09:31:51;;;;;;;;;45.50;39.25;;;;;12.28;68.75;101215.81;5078711;27;45451;-66
2022/03/16 09:34:16;;;;;;;;;43.25;39.00;;;;;12.30;69.16;101215.75;5078296;27;45428;-66
2022/03/16 09:36:42;;;;;;;;;44.50;38.25;;;;;12.31;69.85;101215.72;5078665;27;45512;-66
2022/03/16 09:39:08;;;;;;;;;39.00;35.75;;;;;12.35;68.82;101216.47;5078331;27;45398;-66
2022/03/16 09:41:34;;;;;;;;;49.75;37.75;;;;;12.37;69.02;101217.28;5078390;27;45330;-66
2022/03/16 09:44:00;;;;;;;;;43.75;38.00;;;;;12.38;68.58;101217.25;5078426;27;45346;-66
2022/03/16 09:46:30;;;;;;;;;36.75;34.00;;;;;12.39;68.19;101207.53;5078308;27;45429;-66
2022/03/16 09:48:56;;;;;;;;;40.25;35.00;;;;;12.40;68.33;101209.25;5077987;27;45385;-66
2022/03/16 09:51:22;;;;;;;;;43.25;36.50;;;;;12.41;68.93;101212.75;5078218;28;45440;-66
2022/03/16 09:53:47;;;;;;;;;44.00;37.00;;;;;12.42;68.61;101212.72;5076303;28;45633;-66
2022/03/16 09:56:14;;;;;;;;;40.50;36.25;;;;;12.44;68.07;101197.72;5077957;27;46079;-66
2022/03/16 09:58:42;;;;;;;;;35.50;34.00;;;;;12.44;68.65;101195.06;5077640;27;45424;-66
2022/03/16 10:01:08;;;;;;;;;39.75;36.25;;;;;12.45;68.54;101196.78;5077850;27;45335;-66
2022/03/16 10:03:35;;;;;;;;;41.00;35.75;;;;;12.44;68.08;101192.44;5077391;27;46763;-66
2022/03/16 10:06:00;;;;;;;;;41.25;37.75;;;;;12.45;67.94;101199.41;5077890;27;46088;-66
2022/03/16 10:08:36;;;;;;;;;37.00;34.50;;;;;12.46;68.17;101198.50;5077750;27;45468;-66
2022/03/16 10:14:07;;;;;;;;;47.50;37.00;;;;;12.52;68.05;101202.69;5077858;27;45436;-67
2022/03/16 10:17:43;;;;;;;;;39.50;36.50;;;;;12.54;68.81;101198.25;5076440;28;47136;-66
2022/03/16 10:19:24;;;;;;;;;41.25;38.00;;;;;12.56;68.53;101193.78;5077710;28;45454;-66
2022/03/16 10:22:00;;;;;;;;;44.75;38.00;;;;;12.59;67.85;101198.94;5077879;27;45365;-66
2022/03/16 10:24:29;;;;;;;;;41.50;37.25;;;;;12.61;68.19;101191.84;5077720;27;45403;-66
2022/03/16 10:26:58;;;;;;;;;37.75;34.75;;;;;12.63;67.54;101194.41;5077717;27;46164;-66
2022/03/16 10:29:26;;;;;;;;;41.75;37.25;;;;;12.64;68.24;101190.88;5077572;27;45428;-66
2022/03/16 10:32:03;;;;;;;;;38.75;36.00;;;;;12.66;68.16;101186.41;5077681;27;45408;-66
2022/03/16 10:34:28;;;;;;;;;38.00;36.00;;;;;12.69;67.61;101194.22;5077743;27;45408;-67
2022/03/16 10:36:54;;;;;;;;;41.50;37.00;;;;;12.73;68.26;101195.84;5077275;27;45438;-66
2022/03/16 10:39:32;;;;;;;;;39.00;35.50;;;;;12.75;67.90;101181.66;5075977;27;45393;-66
2022/03/16 10:48:10;;;;;;;;;41.75;38.25;;;;;12.91;67.26;101183.78;5077148;27;45389;-66
2022/03/16 10:50:40;;;;;;;;;39.75;34.25;;;;;12.95;67.53;101183.63;5077232;27;45417;-66
2022/03/16 10:53:05;;;;;;;;;42.50;38.25;;;;;12.96;67.26;101173.91;5077103;27;45441;-66
2022/03/16 10:55:31;;;;;;;;;43.50;36.00;;;;;13.00;67.23;101170.22;5077183;27;45413;-67
2022/03/16 10:57:59;;;;;;;;;37.75;34.75;;;;;13.02;67.38;101171.03;5076681;28;46429;-67
2022/03/16 11:00:27;;;;;;;;;66.25;53.50;;;;;13.04;67.22;101159.50;5077060;28;45350;-67
2022/03/16 11:02:55;;;;;;;;;42.25;36.75;;;;;13.07;66.84;101155.03;5076991;28;45447;-66
2022/03/16 11:05:21;;;;;;;;;35.75;34.25;;;;;13.08;67.16;101151.47;5077183;28;45491;-66
2022/03/16 11:07:51;;;;;;;;;37.75;35.25;;;;;13.07;67.30;101145.34;5076615;28;45461;-66
2022/03/16 11:10:17;;;;;;;;;41.00;36.75;;;;;13.05;66.97;101145.38;5076980;27;45512;-66
2022/03/16 11:15:29;;;;;;;;;44.75;37.25;;;;;13.07;66.62;101136.56;5076966;28;45472;-67